Puno, Peru
Current Conditions -  °F | °C
As of 6:00 PM on Saturday 22 Nov 2014 (Local Time) from SPJL Reporting Station
Light Rain Light Rain  
Wind Chill: 52°   Ceiling: 7000
Heat Index: 52°   Visibility: 5mi
Dew Point: 41°   Wind: 13mph
Humidity: 67%   Direction: 360°N
Pressure: 30.53"   Gusts: NA
Location:  15.84°S, 70.05°W
Report Text: SPJL 222300Z 36011KT 8000 -RA SCT010 OVC070 11/05 Q1034 RMKPP000
Loading
Personal Weather Stations






























Interactive Weather Map New forecast layout! Learn more

10-Day Weather Forecast

Advertisements
Track Severe Weather on mobile